createdAt,value
2023-03-04T12:16:48.262Z,3.00
2023-03-04T12:20:08.386Z,5.50
2023-03-04T12:26:16.993Z,3.35
2023-03-04T12:29:17.062Z,2.15
2023-03-04T12:32:32.735Z,2.43
2023-03-04T12:43:54.433Z,4.80
2023-03-04T12:47:06.949Z,2.40
2023-03-04T12:56:32.371Z,4.95
2023-03-04T12:59:35.399Z,3.08
2023-03-04T13:03:04.907Z,6.80
2023-03-04T13:06:17.716Z,4.13
2023-03-04T13:53:28.649Z,6.80
2023-03-04T13:56:34.448Z,3.97
2023-03-04T13:59:40.679Z,3.83
2023-03-04T14:03:28.280Z,7.15
2023-03-04T14:06:55.432Z,3.80
2023-03-04T14:10:17.054Z,5.50
2023-03-04T14:13:00.843Z,4.17
2023-03-04T14:15:35.557Z,4.43
2023-03-04T14:18:21.206Z,5.63
2023-03-04T14:27:20.709Z,6.03
2023-03-04T14:37:29.325Z,3.63
2023-03-04T14:40:40.726Z,3.53
2023-03-04T14:44:22.987Z,3.38
2023-03-04T14:50:49.686Z,4.75
2023-03-04T14:54:02.274Z,1.90
2023-03-04T14:57:24.571Z,4.93
2023-03-04T15:04:26.356Z,2.88
2023-03-04T15:07:11.180Z,6.40
2023-03-04T15:09:43.103Z,5.37
2023-03-04T15:12:25.651Z,4.43
2023-03-04T15:15:04.354Z,7.43
2023-03-04T15:17:42.940Z,3.58
2023-03-04T15:20:26.010Z,4.25
2023-03-04T15:23:10.097Z,4.07
2023-03-04T15:25:39.608Z,3.57
2023-03-04T15:30:59.165Z,4.43
2023-03-04T15:33:34.129Z,4.55
2023-03-04T15:36:03.984Z,3.78
2023-03-04T15:38:37.035Z,5.38
2023-03-04T15:41:28.229Z,6.73
2023-03-04T15:44:41.643Z,5.80
2023-03-04T15:47:13.223Z,7.35
2023-03-04T15:49:53.090Z,5.60
2023-03-04T15:52:30.851Z,5.15
2023-03-04T15:54:59.292Z,3.80
2023-03-04T15:57:28.051Z,5.43
2023-03-04T15:59:59.653Z,4.00
2023-03-04T16:02:37.323Z,3.75
2023-03-04T16:05:05.393Z,3.35
2023-03-04T16:07:37.140Z,5.22
2023-03-04T16:10:14.066Z,5.35
2023-03-04T16:15:56.347Z,2.60
2023-03-04T16:18:43.663Z,4.25
2023-03-04T16:21:31.289Z,8.05
2023-03-04T16:24:23.805Z,3.35
2023-03-04T16:27:11.385Z,2.67
2023-03-04T16:29:52.676Z,3.67
2023-03-04T16:32:32.527Z,3.97
2023-03-04T16:35:16.312Z,2.85
2023-03-04T16:37:51.184Z,3.80
2023-03-04T16:40:37.376Z,3.55
2023-03-04T16:43:24.934Z,5.97
2023-03-04T16:46:16.062Z,5.83
2023-03-04T16:48:44.055Z,4.03
2023-03-04T16:51:20.459Z,5.13
2023-03-04T16:54:01.838Z,4.28
2023-03-04T16:56:30.224Z,4.20
2023-03-04T16:59:00.527Z,3.50
2023-03-04T17:01:32.033Z,6.23
2023-03-04T17:03:59.829Z,5.18
2023-03-04T17:06:31.046Z,4.88
2023-03-04T17:08:58.711Z,6.38
2023-03-04T17:11:28.903Z,5.43
2023-03-04T17:13:58.716Z,7.07
2023-03-04T17:16:31.805Z,6.65
2023-03-04T17:19:01.577Z,6.35
2023-03-04T17:21:31.710Z,7.10
2023-03-04T17:24:06.792Z,7.55
2023-03-04T17:26:48.974Z,5.77
2023-03-04T17:29:26.341Z,10.30
2023-03-04T17:31:58.015Z,6.53
2023-03-04T17:35:43.185Z,5.53
2023-03-04T17:38:30.519Z,6.68
2023-03-04T17:41:04.150Z,7.10
2023-03-04T17:43:32.112Z,5.57
2023-03-04T17:46:12.275Z,5.75
2023-03-04T17:48:40.251Z,6.90
2023-03-04T17:51:09.562Z,6.13
2023-03-04T17:53:37.666Z,7.80
2023-03-04T17:56:37.860Z,5.77
2023-03-04T17:59:11.957Z,5.43
2023-03-04T18:01:40.512Z,7.60
2023-03-04T18:04:09.922Z,6.82
2023-03-04T18:06:40.008Z,6.88
2023-03-04T18:09:10.847Z,7.37
2023-03-04T18:14:47.524Z,7.60
2023-03-04T18:23:31.681Z,9.95
2023-03-04T18:26:05.613Z,9.85
2023-03-04T18:28:33.503Z,10.87
2023-03-04T18:31:01.413Z,7.43
2023-03-04T18:33:30.768Z,6.80
2023-03-04T18:36:04.036Z,6.68
2023-03-04T18:38:59.636Z,6.97
2023-03-04T18:46:20.998Z,10.53
2023-03-04T18:50:09.529Z,9.02
2023-03-04T19:00:06.278Z,11.32
2023-03-04T19:08:51.464Z,12.60
2023-03-04T19:21:47.222Z,8.63
2023-03-04T19:24:25.402Z,8.43
2023-03-04T19:26:58.826Z,9.90
2023-03-04T19:29:36.723Z,8.07
2023-03-04T19:32:41.140Z,9.57
2023-03-04T19:35:36.804Z,10.00
2023-03-04T19:38:11.463Z,9.23
2023-03-04T19:40:53.133Z,8.18
2023-03-04T19:43:23.462Z,7.07
2023-03-04T19:45:56.004Z,7.10
2023-03-04T19:52:37.182Z,7.43
2023-03-04T19:55:27.171Z,7.78
2023-03-04T19:58:52.734Z,7.70
2023-03-04T20:01:52.503Z,8.27
2023-03-04T20:11:57.289Z,12.63
2023-03-04T20:14:36.904Z,12.52
2023-03-04T20:17:07.327Z,16.17
2023-03-04T20:19:42.210Z,12.75
2023-03-04T20:22:13.632Z,16.00
2023-03-04T20:24:41.426Z,12.40
2023-03-04T20:27:17.551Z,13.93
2023-03-04T20:29:50.702Z,11.97
2023-03-04T20:32:20.732Z,14.02
2023-03-04T20:34:53.264Z,12.32
2023-03-04T20:37:21.371Z,14.13
2023-03-04T20:39:55.854Z,12.90
2023-03-04T20:42:25.775Z,16.77
2023-03-04T20:44:58.141Z,16.40
2023-03-04T20:47:33.662Z,14.30
2023-03-04T20:50:01.688Z,16.05
2023-03-04T20:52:32.179Z,11.75
2023-03-04T20:55:11.058Z,14.57
2023-03-04T20:57:49.990Z,11.30
2023-03-04T21:00:21.119Z,12.55
2023-03-04T21:02:50.176Z,12.15
2023-03-04T21:05:19.917Z,13.00
2023-03-04T21:07:52.794Z,12.97
2023-03-04T21:10:25.896Z,11.70
2023-03-04T21:12:53.735Z,10.80
2023-03-04T21:15:22.904Z,10.98
2023-03-04T21:17:52.954Z,12.25
2023-03-04T21:20:20.756Z,13.17
2023-03-04T21:22:52.924Z,12.25
2023-03-04T21:25:24.313Z,12.13
2023-03-04T21:27:51.949Z,15.80
2023-03-04T21:30:19.724Z,13.93
2023-03-04T21:32:47.581Z,11.83
2023-03-04T21:35:15.445Z,10.85
2023-03-04T21:37:43.086Z,12.38
2023-03-04T21:40:11.545Z,11.23
2023-03-04T21:42:39.624Z,9.30
2023-03-04T21:45:07.825Z,8.20
2023-03-04T21:47:38.876Z,10.35
2023-03-04T21:50:06.980Z,11.10
2023-03-04T21:52:34.681Z,9.52
2023-03-04T21:55:02.482Z,8.05
2023-03-04T21:57:30.214Z,10.80
2023-03-04T22:00:00.745Z,8.20
2023-03-04T22:02:28.773Z,8.70
2023-03-04T22:04:59.634Z,8.63
2023-03-04T22:07:27.373Z,6.78
2023-03-04T22:09:55.745Z,6.80
2023-03-04T22:12:31.730Z,7.47
2023-03-04T22:14:59.602Z,7.05
2023-03-04T22:17:29.622Z,8.18
2023-03-04T22:19:57.332Z,6.88
2023-03-04T22:22:25.096Z,6.10
2023-03-04T22:24:53.480Z,6.15
2023-03-04T22:27:23.509Z,6.78
2023-03-04T22:29:51.305Z,6.80
2023-03-04T22:32:18.980Z,6.05
2023-03-04T22:34:46.829Z,7.50
2023-03-04T22:37:14.993Z,8.02
2023-03-04T22:39:42.556Z,7.95
2023-03-04T22:42:15.767Z,8.15
2023-03-04T22:44:43.399Z,7.22
2023-03-04T22:47:11.177Z,8.13
2023-03-04T22:49:45.010Z,8.80
2023-03-04T22:52:13.769Z,6.25
2023-03-04T22:54:44.399Z,6.40
2023-03-04T22:57:12.048Z,8.65
2023-03-04T22:59:40.722Z,5.68
2023-03-04T23:02:11.527Z,5.87
2023-03-04T23:04:39.247Z,5.30
2023-03-04T23:07:06.999Z,7.03
2023-03-04T23:09:37.009Z,5.68
2023-03-04T23:12:05.098Z,4.80
2023-03-04T23:14:32.823Z,6.53
2023-03-04T23:17:00.478Z,5.03
2023-03-04T23:19:28.283Z,5.80
2023-03-04T23:21:55.987Z,7.13
2023-03-04T23:24:26.754Z,7.80
2023-03-04T23:26:59.252Z,5.80
2023-03-04T23:29:31.254Z,5.93
2023-03-04T23:32:03.440Z,8.52
2023-03-04T23:34:38.189Z,7.15
2023-03-04T23:37:08.880Z,6.78
2023-03-04T23:39:48.286Z,7.07
2023-03-04T23:42:17.176Z,7.32
2023-03-04T23:44:44.901Z,9.25
2023-03-04T23:47:15.066Z,8.55
2023-03-04T23:49:47.853Z,7.28
2023-03-04T23:52:18.228Z,6.30
2023-03-04T23:54:51.537Z,8.32
2023-03-04T23:57:25.587Z,9.32
2023-03-04T23:59:55.550Z,9.48
